createdAt,value
2018-03-29T00:00:47.773Z,99.90
2018-03-29T00:03:15.226Z,99.90
2018-03-29T00:05:42.683Z,99.90
2018-03-29T00:08:10.141Z,99.90
2018-03-29T00:10:37.580Z,99.90
2018-03-29T00:13:05.040Z,99.90
2018-03-29T00:15:32.469Z,99.90
2018-03-29T00:17:59.929Z,99.90
2018-03-29T00:20:28.140Z,99.90
2018-03-29T00:22:55.594Z,99.90
2018-03-29T00:25:23.271Z,99.90
2018-03-29T00:27:50.722Z,99.90
2018-03-29T00:30:18.182Z,99.90
2018-03-29T00:32:45.633Z,99.90
2018-03-29T00:35:13.092Z,99.90
2018-03-29T00:37:40.527Z,99.90
2018-03-29T00:40:07.991Z,99.90
2018-03-29T00:42:35.457Z,99.90
2018-03-29T00:45:02.916Z,99.90
2018-03-29T00:47:30.369Z,99.90
2018-03-29T00:49:57.810Z,99.90
2018-03-29T00:52:25.280Z,99.90
2018-03-29T00:54:52.736Z,99.90
2018-03-29T00:57:20.182Z,99.90
2018-03-29T00:59:47.677Z,99.90
2018-03-29T01:02:15.107Z,99.90
2018-03-29T01:04:42.560Z,99.90
2018-03-29T01:07:10.022Z,99.90
2018-03-29T01:09:37.456Z,99.90
2018-03-29T01:12:04.918Z,99.90
2018-03-29T01:14:32.420Z,99.90
2018-03-29T01:16:59.852Z,99.90
2018-03-29T01:19:27.312Z,99.90
2018-03-29T01:21:54.763Z,99.90
2018-03-29T01:24:22.212Z,99.90
2018-03-29T01:26:49.668Z,99.90
2018-03-29T01:29:18.379Z,99.90
2018-03-29T01:31:45.830Z,99.90
2018-03-29T01:34:13.304Z,99.90
2018-03-29T01:36:40.736Z,99.90
2018-03-29T01:39:08.165Z,99.90
2018-03-29T01:41:35.608Z,99.90
2018-03-29T01:44:03.036Z,99.90
2018-03-29T01:46:30.483Z,99.90
2018-03-29T01:48:57.933Z,99.90
2018-03-29T01:51:25.472Z,99.90
2018-03-29T01:53:52.926Z,99.90
2018-03-29T01:56:20.352Z,99.90
2018-03-29T01:58:48.585Z,99.90
2018-03-29T02:01:16.033Z,99.90
2018-03-29T02:03:43.484Z,99.90
2018-03-29T02:06:10.915Z,99.90
2018-03-29T02:08:38.359Z,99.90
2018-03-29T02:11:05.788Z,99.90
2018-03-29T02:13:33.228Z,99.90
2018-03-29T02:16:00.691Z,99.90
2018-03-29T02:18:28.152Z,99.90
2018-03-29T02:20:55.638Z,99.90
2018-03-29T02:23:23.066Z,99.90
2018-03-29T02:25:50.492Z,99.90
2018-03-29T02:28:17.966Z,99.90
2018-03-29T02:30:45.424Z,99.90
2018-03-29T02:33:12.850Z,99.90
2018-03-29T02:35:41.540Z,99.90
2018-03-29T02:38:08.989Z,99.90
2018-03-29T02:40:36.418Z,99.90
2018-03-29T02:43:03.854Z,99.90
2018-03-29T02:45:31.312Z,99.90
2018-03-29T02:47:58.751Z,99.90
2018-03-29T02:50:26.222Z,99.90
2018-03-29T02:52:53.689Z,99.90
2018-03-29T02:55:21.170Z,99.90
2018-03-29T02:57:48.642Z,99.90
2018-03-29T03:00:16.885Z,99.90
2018-03-29T03:02:44.317Z,99.90
2018-03-29T03:05:11.807Z,99.90
2018-03-29T03:07:39.232Z,99.90
2018-03-29T03:10:06.707Z,99.90
2018-03-29T03:12:34.145Z,99.90
2018-03-29T03:15:01.615Z,99.90
2018-03-29T03:17:29.061Z,99.90
2018-03-29T03:20:03.090Z,99.90
2018-03-29T03:22:30.528Z,99.90
2018-03-29T03:24:57.964Z,99.90
2018-03-29T03:27:25.420Z,99.90
2018-03-29T03:29:53.480Z,99.90
2018-03-29T03:32:20.937Z,99.90
2018-03-29T03:34:48.388Z,99.90
2018-03-29T03:37:16.628Z,99.90
2018-03-29T03:39:44.060Z,99.90
2018-03-29T03:42:11.518Z,99.90
2018-03-29T03:44:38.958Z,99.90
2018-03-29T03:47:06.415Z,99.90
2018-03-29T03:49:33.859Z,99.90
2018-03-29T03:52:01.299Z,99.90
2018-03-29T03:54:28.772Z,99.90
2018-03-29T03:56:56.204Z,99.90
2018-03-29T03:59:23.656Z,99.90
2018-03-29T04:01:51.179Z,99.90
2018-03-29T04:04:18.644Z,99.90
2018-03-29T04:06:46.084Z,99.90
2018-03-29T04:09:13.530Z,99.90
2018-03-29T04:11:41.014Z,99.90
2018-03-29T04:14:08.526Z,99.90
2018-03-29T04:16:35.936Z,99.90
2018-03-29T04:19:03.407Z,99.90
2018-03-29T04:21:30.913Z,99.90
2018-03-29T04:23:58.377Z,99.90
2018-03-29T04:26:26.038Z,99.90
2018-03-29T04:28:53.507Z,99.90
2018-03-29T04:31:20.968Z,99.90
2018-03-29T04:33:48.415Z,99.90
2018-03-29T04:36:15.879Z,99.90
2018-03-29T04:38:43.321Z,99.90
2018-03-29T04:41:10.817Z,99.90
2018-03-29T04:43:38.261Z,99.90
2018-03-29T04:46:05.747Z,99.90
2018-03-29T04:48:33.181Z,99.90
2018-03-29T04:51:00.648Z,99.90
2018-03-29T04:53:28.108Z,99.90
2018-03-29T04:55:55.552Z,99.90
2018-03-29T04:58:22.991Z,99.90
2018-03-29T05:00:50.448Z,99.90
2018-03-29T05:03:17.905Z,99.90
2018-03-29T05:05:45.327Z,99.90
2018-03-29T05:08:12.787Z,99.90
2018-03-29T05:10:40.234Z,99.90
2018-03-29T05:13:07.701Z,99.90
2018-03-29T05:15:35.173Z,99.90
2018-03-29T05:18:02.618Z,99.90
2018-03-29T05:20:30.072Z,99.90
2018-03-29T05:22:57.537Z,99.90
2018-03-29T05:25:24.952Z,99.90
2018-03-29T05:27:57.034Z,99.90
2018-03-29T05:30:24.558Z,99.90
2018-03-29T05:32:52.022Z,99.90
2018-03-29T05:35:19.461Z,99.90
2018-03-29T05:37:46.904Z,99.90
2018-03-29T05:40:14.344Z,99.90
2018-03-29T05:42:41.826Z,99.90
2018-03-29T05:45:09.317Z,99.90
2018-03-29T05:47:36.766Z,99.90
2018-03-29T05:50:04.201Z,99.90
2018-03-29T05:52:31.675Z,99.90
2018-03-29T05:54:59.173Z,99.90
2018-03-29T05:57:26.611Z,99.90
2018-03-29T05:59:54.908Z,99.90
2018-03-29T06:02:22.368Z,99.90
2018-03-29T06:04:49.837Z,99.90
2018-03-29T06:07:17.281Z,99.90
2018-03-29T06:09:45.508Z,99.90
2018-03-29T06:12:12.956Z,99.90
2018-03-29T06:14:45.431Z,99.90
2018-03-29T06:17:18.454Z,99.90
2018-03-29T06:19:45.897Z,99.90
2018-03-29T06:22:13.364Z,99.90
2018-03-29T06:24:40.805Z,99.90
2018-03-29T06:27:08.264Z,99.90
2018-03-29T06:29:35.726Z,99.90
2018-03-29T06:32:03.176Z,99.90
2018-03-29T06:34:30.647Z,99.90
2018-03-29T06:36:58.144Z,99.90
2018-03-29T06:39:26.359Z,99.90
2018-03-29T06:41:53.822Z,99.90
2018-03-29T06:44:21.300Z,99.90
2018-03-29T06:46:48.734Z,99.90
2018-03-29T06:49:16.216Z,99.90
2018-03-29T06:51:43.669Z,99.90
2018-03-29T06:54:11.156Z,99.90
2018-03-29T06:56:39.352Z,99.90
2018-03-29T06:59:06.771Z,99.90
2018-03-29T07:01:34.197Z,99.90
2018-03-29T07:04:01.640Z,99.90
2018-03-29T07:06:29.132Z,99.90
2018-03-29T07:08:56.535Z,99.90
2018-03-29T07:11:24.000Z,99.90
2018-03-29T07:13:51.444Z,99.90
2018-03-29T07:16:19.065Z,99.90
2018-03-29T07:18:46.503Z,99.90
2018-03-29T07:21:14.223Z,99.90
2018-03-29T07:23:42.439Z,99.90
2018-03-29T07:26:09.897Z,99.90
2018-03-29T07:28:37.346Z,99.90
2018-03-29T07:31:04.847Z,99.90
2018-03-29T07:33:33.097Z,99.90
2018-03-29T07:36:00.532Z,99.90
2018-03-29T07:38:27.982Z,99.90
2018-03-29T07:40:55.416Z,99.90
2018-03-29T07:43:22.869Z,99.90
2018-03-29T07:45:51.106Z,99.70
2018-03-29T07:48:18.560Z,99.70
2018-03-29T07:50:46.112Z,99.50
2018-03-29T07:53:13.722Z,99.50
2018-03-29T07:55:41.175Z,99.50
2018-03-29T07:58:08.605Z,99.20
2018-03-29T08:00:36.041Z,98.80
2018-03-29T08:03:03.488Z,97.80
2018-03-29T08:05:30.937Z,96.70
2018-03-29T08:07:58.399Z,96.50
2018-03-29T08:10:25.849Z,96.40
2018-03-29T08:12:53.277Z,96.20
2018-03-29T08:15:20.756Z,95.60
2018-03-29T08:17:48.217Z,95.50
2018-03-29T08:20:15.674Z,95.70
2018-03-29T08:22:43.125Z,95.40
2018-03-29T08:25:10.562Z,95.40
2018-03-29T08:27:38.027Z,95.70
2018-03-29T08:30:05.466Z,95.40
2018-03-29T08:32:32.895Z,94.90
2018-03-29T08:35:00.348Z,94.30
2018-03-29T08:37:27.785Z,94.30
2018-03-29T08:39:55.273Z,95.00
2018-03-29T08:42:22.707Z,93.90
2018-03-29T08:44:50.148Z,94.30
2018-03-29T08:47:17.593Z,93.80
2018-03-29T08:49:45.187Z,93.00
2018-03-29T08:52:12.643Z,92.50
2018-03-29T08:54:40.112Z,93.10
2018-03-29T08:57:07.678Z,92.30
2018-03-29T08:59:35.013Z,91.80
2018-03-29T09:02:02.475Z,91.30
2018-03-29T09:04:29.922Z,91.20
2018-03-29T09:06:57.373Z,90.70
2018-03-29T09:09:24.876Z,90.00
2018-03-29T09:11:52.285Z,89.40
2018-03-29T09:14:19.758Z,88.50
2018-03-29T09:16:47.198Z,86.70
2018-03-29T09:19:14.662Z,84.40
2018-03-29T09:21:42.126Z,86.60
2018-03-29T09:24:09.580Z,85.20
2018-03-29T09:26:37.028Z,81.40
2018-03-29T09:29:04.480Z,79.20
2018-03-29T09:31:31.995Z,77.20
2018-03-29T09:33:59.445Z,74.70
2018-03-29T09:36:26.908Z,73.40
2018-03-29T09:38:54.337Z,71.80
2018-03-29T09:41:21.802Z,67.70
2018-03-29T09:43:49.266Z,67.50
2018-03-29T09:46:16.728Z,67.90
2018-03-29T09:48:44.172Z,70.30
2018-03-29T09:51:11.624Z,70.80
2018-03-29T09:53:39.147Z,70.30
2018-03-29T09:56:06.591Z,71.30
2018-03-29T09:58:34.055Z,70.90
2018-03-29T10:01:07.276Z,70.80
2018-03-29T10:03:39.651Z,69.40
2018-03-29T10:06:07.552Z,68.80
2018-03-29T10:08:35.000Z,67.30
2018-03-29T10:11:02.435Z,67.40
2018-03-29T10:13:29.896Z,64.90
2018-03-29T10:15:57.348Z,67.00
2018-03-29T10:18:24.844Z,68.10
2018-03-29T10:20:52.275Z,68.40
2018-03-29T10:23:19.727Z,65.00
2018-03-29T10:25:47.206Z,59.40
2018-03-29T10:28:14.664Z,55.70
2018-03-29T10:30:42.883Z,52.70
2018-03-29T10:33:10.339Z,52.60
2018-03-29T10:35:37.849Z,51.50
2018-03-29T10:38:05.272Z,51.30
2018-03-29T10:40:32.752Z,51.40
2018-03-29T10:43:00.241Z,53.20
2018-03-29T10:45:27.717Z,51.60
2018-03-29T10:47:55.173Z,51.80
2018-03-29T10:50:22.673Z,49.50
2018-03-29T10:52:50.131Z,48.70
2018-03-29T10:55:17.576Z,46.20
2018-03-29T10:57:45.109Z,43.70
2018-03-29T11:00:12.712Z,43.20
2018-03-29T11:02:40.168Z,44.70
2018-03-29T11:05:07.626Z,46.10
2018-03-29T11:07:35.079Z,48.90
2018-03-29T11:10:02.576Z,47.30
2018-03-29T11:12:30.021Z,48.10
2018-03-29T11:14:57.486Z,44.40
2018-03-29T11:17:24.998Z,41.30
2018-03-29T11:19:52.462Z,39.40
2018-03-29T11:22:20.085Z,36.30
2018-03-29T11:24:47.525Z,36.50
2018-03-29T11:27:14.992Z,35.40
2018-03-29T11:29:42.464Z,35.60
2018-03-29T11:32:09.912Z,36.60
2018-03-29T11:34:37.405Z,36.90
2018-03-29T11:37:04.842Z,33.60
2018-03-29T11:39:32.284Z,33.10
2018-03-29T11:41:59.749Z,35.50
2018-03-29T11:44:27.419Z,34.00
2018-03-29T11:46:54.888Z,33.80
2018-03-29T11:49:22.356Z,33.40
2018-03-29T11:51:49.789Z,31.20
2018-03-29T11:54:17.244Z,27.50
2018-03-29T11:56:44.674Z,26.70
2018-03-29T11:59:12.155Z,25.30
2018-03-29T12:01:39.623Z,25.60
2018-03-29T12:04:07.067Z,26.30
2018-03-29T12:06:34.602Z,24.70
2018-03-29T12:09:02.838Z,22.30
2018-03-29T12:11:30.296Z,22.30
2018-03-29T12:13:57.755Z,23.20
2018-03-29T12:16:25.199Z,24.20
2018-03-29T12:18:52.649Z,23.40
2018-03-29T12:21:20.098Z,22.80
2018-03-29T12:23:47.547Z,23.10
2018-03-29T12:26:14.980Z,23.50
2018-03-29T12:28:42.612Z,25.10
2018-03-29T12:31:10.097Z,24.00
2018-03-29T12:33:37.492Z,24.20
2018-03-29T12:36:04.975Z,25.50
2018-03-29T12:38:32.438Z,26.00
2018-03-29T12:40:59.895Z,26.50
2018-03-29T12:43:27.375Z,27.70
2018-03-29T12:45:54.815Z,29.10
2018-03-29T12:48:23.047Z,30.90
2018-03-29T12:50:50.907Z,30.90
2018-03-29T12:53:18.366Z,30.50
2018-03-29T12:55:45.841Z,29.20
2018-03-29T12:58:13.311Z,29.80
2018-03-29T13:00:40.770Z,28.30
2018-03-29T13:03:08.479Z,29.90
2018-03-29T13:05:35.964Z,30.30
2018-03-29T13:08:03.418Z,31.40
2018-03-29T13:10:30.868Z,31.50
2018-03-29T13:12:58.438Z,31.20
2018-03-29T13:15:25.938Z,29.90
2018-03-29T13:17:53.383Z,29.80
2018-03-29T13:20:20.815Z,29.70
2018-03-29T13:22:48.258Z,29.50
2018-03-29T13:25:15.772Z,30.80
2018-03-29T13:27:43.184Z,31.50
2018-03-29T13:30:11.448Z,30.20
2018-03-29T13:32:38.931Z,30.20
2018-03-29T13:35:06.431Z,30.80
2018-03-29T13:37:33.880Z,31.70
2018-03-29T13:40:02.099Z,32.50
2018-03-29T13:42:29.554Z,32.40
2018-03-29T13:44:56.988Z,33.20
2018-03-29T13:47:24.452Z,34.50
2018-03-29T13:49:52.190Z,35.50
2018-03-29T13:52:19.631Z,36.70
2018-03-29T13:54:47.089Z,36.50
2018-03-29T13:57:14.668Z,36.30
2018-03-29T13:59:42.137Z,37.40
2018-03-29T14:02:09.662Z,38.60
2018-03-29T14:04:37.193Z,38.40
2018-03-29T14:07:04.636Z,38.90
2018-03-29T14:09:32.098Z,37.80
2018-03-29T14:11:59.560Z,37.10
2018-03-29T14:14:27.108Z,36.30
2018-03-29T14:16:54.524Z,37.10
2018-03-29T14:19:22.794Z,37.00
2018-03-29T14:21:50.245Z,37.00
2018-03-29T14:24:17.714Z,37.10
2018-03-29T14:26:45.940Z,35.90
2018-03-29T14:29:13.399Z,35.80
2018-03-29T14:31:40.863Z,36.30
2018-03-29T14:34:08.327Z,35.90
2018-03-29T14:36:35.791Z,37.00
2018-03-29T14:39:03.248Z,38.10
2018-03-29T14:41:30.763Z,39.30
2018-03-29T14:43:58.195Z,41.30
2018-03-29T14:46:25.654Z,42.80
2018-03-29T14:48:53.356Z,44.20
2018-03-29T14:51:20.869Z,45.00
2018-03-29T14:53:48.335Z,45.90
2018-03-29T14:56:15.778Z,46.00
2018-03-29T14:58:43.312Z,47.20
2018-03-29T15:01:10.974Z,50.50
2018-03-29T15:03:38.442Z,51.40
2018-03-29T15:06:05.884Z,52.20
2018-03-29T15:08:33.373Z,52.80
2018-03-29T15:11:00.840Z,51.70
2018-03-29T15:13:29.499Z,51.30
2018-03-29T15:15:56.960Z,50.60
2018-03-29T15:18:24.480Z,52.30
2018-03-29T15:20:51.956Z,52.30
2018-03-29T15:23:19.423Z,53.30
2018-03-29T15:25:47.004Z,53.50
2018-03-29T15:28:15.248Z,54.70
2018-03-29T15:30:42.730Z,54.60
2018-03-29T15:33:10.201Z,52.80
2018-03-29T15:35:38.427Z,52.00
2018-03-29T15:38:05.933Z,52.00
2018-03-29T15:40:33.380Z,52.30
2018-03-29T15:43:00.872Z,51.30
2018-03-29T15:45:28.355Z,50.10
2018-03-29T15:47:56.032Z,50.90
2018-03-29T15:50:23.512Z,52.00
2018-03-29T15:52:50.983Z,52.20
2018-03-29T15:55:18.436Z,51.30
2018-03-29T15:57:45.908Z,50.90
2018-03-29T16:00:13.344Z,50.10
2018-03-29T16:02:41.604Z,50.70
2018-03-29T16:05:09.045Z,50.60
2018-03-29T16:07:36.532Z,55.10
2018-03-29T16:10:04.021Z,59.10
2018-03-29T16:12:31.540Z,61.80
2018-03-29T16:14:59.226Z,70.00
2018-03-29T16:17:27.454Z,77.40
2018-03-29T16:19:54.943Z,77.50
2018-03-29T16:22:22.424Z,80.80
2018-03-29T16:24:50.650Z,78.70
2018-03-29T16:27:18.107Z,78.60
2018-03-29T16:29:45.580Z,76.90
2018-03-29T16:32:13.008Z,75.20
2018-03-29T16:34:40.488Z,74.50
2018-03-29T16:37:07.952Z,72.50
2018-03-29T16:39:35.416Z,73.10
2018-03-29T16:42:02.882Z,74.00
2018-03-29T16:44:30.357Z,72.90
2018-03-29T16:46:57.833Z,73.50
2018-03-29T16:49:25.258Z,71.10
2018-03-29T16:51:53.469Z,79.70
2018-03-29T16:54:21.000Z,79.70
2018-03-29T16:56:49.288Z,81.40
2018-03-29T16:59:17.821Z,81.40
2018-03-29T17:01:45.302Z,83.90
2018-03-29T17:04:13.589Z,86.70
2018-03-29T17:06:41.085Z,86.70
2018-03-29T17:09:08.523Z,88.90
2018-03-29T17:11:35.977Z,89.60
2018-03-29T17:14:03.541Z,90.30
2018-03-29T17:16:31.002Z,90.10
2018-03-29T17:22:29.052Z,92.80
2018-03-29T17:24:56.563Z,93.40
2018-03-29T17:27:24.749Z,93.50
2018-03-29T17:29:52.586Z,93.10
2018-03-29T17:35:15.144Z,93.00
2018-03-29T17:37:43.884Z,93.20
2018-03-29T17:40:12.789Z,93.50
2018-03-29T17:42:42.644Z,92.80
2018-03-29T17:45:11.118Z,93.60
2018-03-29T17:47:40.738Z,94.10
2018-03-29T17:50:09.674Z,95.40
2018-03-29T17:52:39.782Z,96.50
2018-03-29T17:55:08.394Z,97.70
2018-03-29T17:57:37.078Z,98.60
2018-03-29T18:00:05.788Z,99.20
2018-03-29T18:02:40.078Z,99.80
2018-03-29T18:05:08.986Z,99.70
2018-03-29T18:07:38.176Z,99.60
2018-03-29T18:10:07.388Z,99.80
2018-03-29T18:12:36.450Z,99.90
2018-03-29T18:15:06.596Z,99.90
2018-03-29T18:17:35.256Z,99.90
2018-03-29T18:20:04.328Z,99.90
2018-03-29T18:22:33.499Z,99.90
2018-03-29T18:25:02.498Z,99.90
2018-03-29T18:27:30.645Z,99.90
2018-03-29T18:29:59.826Z,99.90
2018-03-29T18:32:28.615Z,99.90
2018-03-29T18:34:56.661Z,99.90
2018-03-29T18:37:24.202Z,99.90
2018-03-29T18:39:53.068Z,99.90
2018-03-29T18:42:21.741Z,99.90
2018-03-29T18:44:50.512Z,99.90
2018-03-29T18:47:19.069Z,99.90
2018-03-29T18:49:47.187Z,99.90
2018-03-29T18:52:15.056Z,99.90
2018-03-29T18:54:43.475Z,99.90
2018-03-29T18:57:12.629Z,99.90
2018-03-29T18:59:41.354Z,99.90
2018-03-29T19:02:10.649Z,99.90
2018-03-29T19:04:40.344Z,99.90
2018-03-29T19:07:09.400Z,99.90
2018-03-29T19:09:38.266Z,99.90
2018-03-29T19:12:06.920Z,99.90
2018-03-29T19:14:34.880Z,99.90
2018-03-29T19:17:02.980Z,99.90
2018-03-29T19:19:31.420Z,99.90
2018-03-29T19:21:59.725Z,99.90
2018-03-29T19:24:28.469Z,99.90
2018-03-29T19:26:57.917Z,99.90
2018-03-29T19:29:26.873Z,99.90
2018-03-29T19:31:55.932Z,99.90
2018-03-29T19:34:24.150Z,99.90
2018-03-29T19:36:52.539Z,99.90
2018-03-29T19:39:20.988Z,99.90
2018-03-29T19:41:49.978Z,99.90
2018-03-29T19:44:19.025Z,99.90
2018-03-29T19:46:48.299Z,99.90
2018-03-29T19:49:16.401Z,99.90
2018-03-29T19:51:47.450Z,99.90
2018-03-29T19:54:15.682Z,99.90
2018-03-29T19:56:45.250Z,99.90
2018-03-29T19:59:13.561Z,99.90
2018-03-29T20:01:41.788Z,99.90
2018-03-29T20:04:09.511Z,99.90
2018-03-29T20:06:38.500Z,99.90
2018-03-29T20:09:06.882Z,99.90
2018-03-29T20:11:34.922Z,99.90
2018-03-29T20:14:03.564Z,99.90
2018-03-29T20:16:31.425Z,99.90
2018-03-29T20:19:00.180Z,99.90
2018-03-29T20:21:28.833Z,99.90
2018-03-29T20:23:57.172Z,99.90
2018-03-29T20:26:24.940Z,99.90
2018-03-29T20:28:53.042Z,99.90
2018-03-29T20:31:21.505Z,99.90
2018-03-29T20:33:49.441Z,99.90
2018-03-29T20:36:18.024Z,99.90
2018-03-29T20:38:46.021Z,99.90
2018-03-29T20:41:13.717Z,99.90
2018-03-29T20:43:42.046Z,99.90
2018-03-29T20:46:09.977Z,99.90
2018-03-29T20:48:37.816Z,99.90
2018-03-29T20:51:06.988Z,99.90
2018-03-29T20:53:35.865Z,99.90
2018-03-29T20:56:04.645Z,99.90
2018-03-29T20:58:33.401Z,99.90
2018-03-29T21:01:01.402Z,99.90
2018-03-29T21:03:29.536Z,99.90
2018-03-29T21:05:58.845Z,99.90
2018-03-29T21:08:27.224Z,99.90
2018-03-29T21:10:55.218Z,99.90
2018-03-29T21:13:22.938Z,99.90
2018-03-29T21:15:50.950Z,99.90
2018-03-29T21:18:19.767Z,99.90
2018-03-29T21:20:49.030Z,99.90
2018-03-29T21:23:17.533Z,99.90
2018-03-29T21:25:46.699Z,99.90
2018-03-29T21:28:15.595Z,99.90
2018-03-29T21:30:46.033Z,99.90
2018-03-29T21:33:15.819Z,99.90
2018-03-29T21:35:44.384Z,99.90
2018-03-29T21:38:12.632Z,99.90
2018-03-29T21:40:41.162Z,99.90
2018-03-29T21:43:10.072Z,99.90
2018-03-29T21:45:38.173Z,99.90
2018-03-29T21:48:06.133Z,99.90
2018-03-29T21:50:35.296Z,99.90
2018-03-29T21:53:04.468Z,99.90
2018-03-29T21:55:33.805Z,99.90
2018-03-29T21:58:01.997Z,99.90
2018-03-29T22:00:30.095Z,99.90
2018-03-29T22:02:58.221Z,99.90
2018-03-29T22:05:26.068Z,99.90
2018-03-29T22:07:54.266Z,99.90
2018-03-29T22:10:22.503Z,99.90
2018-03-29T22:12:51.228Z,99.90
2018-03-29T22:15:19.710Z,99.90
2018-03-29T22:17:48.239Z,99.90
2018-03-29T22:20:16.340Z,99.90
2018-03-29T22:22:45.360Z,99.90
2018-03-29T22:25:14.406Z,99.90
2018-03-29T22:27:42.144Z,99.90
2018-03-29T22:30:10.322Z,99.90
2018-03-29T22:32:38.618Z,99.90
2018-03-29T22:35:06.686Z,99.90
2018-03-29T22:37:34.318Z,99.90
2018-03-29T22:40:02.289Z,99.90
2018-03-29T22:42:30.660Z,99.90
2018-03-29T22:44:59.242Z,99.90
2018-03-29T22:47:27.146Z,99.90
2018-03-29T22:49:55.031Z,99.90
2018-03-29T22:52:24.039Z,99.90
2018-03-29T22:54:52.781Z,99.90
2018-03-29T22:57:21.249Z,99.90
2018-03-29T22:59:49.006Z,99.90
2018-03-29T23:02:18.054Z,99.90
2018-03-29T23:04:46.624Z,99.90
2018-03-29T23:07:14.575Z,99.90
2018-03-29T23:09:42.207Z,99.90
2018-03-29T23:12:11.203Z,99.90
2018-03-29T23:14:39.371Z,99.90
2018-03-29T23:17:08.032Z,99.90
2018-03-29T23:19:36.236Z,99.90
2018-03-29T23:22:03.876Z,99.90
2018-03-29T23:24:31.485Z,99.90
2018-03-29T23:26:59.533Z,99.90
2018-03-29T23:29:27.487Z,99.90
2018-03-29T23:31:55.417Z,99.90
2018-03-29T23:34:23.384Z,99.90
2018-03-29T23:36:51.089Z,99.90
2018-03-29T23:39:19.155Z,99.90
2018-03-29T23:41:46.880Z,99.90
2018-03-29T23:44:15.710Z,99.90
2018-03-29T23:46:43.879Z,99.90
2018-03-29T23:49:12.538Z,99.90
2018-03-29T23:51:40.781Z,99.90
2018-03-29T23:54:08.679Z,99.90
2018-03-29T23:56:39.450Z,99.90
2018-03-29T23:59:07.340Z,99.90
